createdAt,value
2022-08-17T00:01:27.724Z,19.69
2022-08-17T00:03:55.044Z,19.71
2022-08-17T00:06:25.526Z,19.58
2022-08-17T00:08:55.287Z,19.58
2022-08-17T00:11:26.191Z,19.16
2022-08-17T00:13:58.581Z,19.33
2022-08-17T00:16:56.217Z,18.91
2022-08-17T00:19:23.128Z,19.62
2022-08-17T00:22:32.711Z,19.66
2022-08-17T00:24:38.839Z,19.37
2022-08-17T00:27:05.640Z,19.55
2022-08-17T00:29:32.281Z,19.54
2022-08-17T00:31:58.913Z,19.18
2022-08-17T00:34:25.614Z,19.18
2022-08-17T00:36:54.635Z,19.18
2022-08-17T00:39:21.304Z,18.79
2022-08-17T00:41:47.953Z,18.66
2022-08-17T00:44:15.660Z,18.88
2022-08-17T00:46:43.939Z,19.29
2022-08-17T00:49:12.724Z,19.35
2022-08-17T00:51:50.245Z,19.46
2022-08-17T00:54:44.959Z,19.33
2022-08-17T00:57:18.441Z,19.37
2022-08-17T00:59:55.956Z,19.57
2022-08-17T01:02:40.391Z,18.69
2022-08-17T01:05:15.140Z,18.93
2022-08-17T01:07:43.240Z,19.19
2022-08-17T01:10:58.228Z,19.29
2022-08-17T01:13:02.593Z,19.19
2022-08-17T01:15:31.754Z,19.24
2022-08-17T01:17:58.496Z,18.72
2022-08-17T01:20:25.190Z,18.59
2022-08-17T01:22:52.582Z,18.34
2022-08-17T01:25:20.669Z,18.33
2022-08-17T01:27:48.708Z,18.29
2022-08-17T01:30:58.596Z,18.37
2022-08-17T01:33:04.386Z,18.50
2022-08-17T01:35:31.048Z,18.65
2022-08-17T01:37:57.652Z,18.82
2022-08-17T01:40:35.220Z,18.87
2022-08-17T01:43:09.036Z,19.08
2022-08-17T01:45:42.771Z,19.04
2022-08-17T01:48:09.728Z,19.00
2022-08-17T01:50:38.036Z,19.01
2022-08-17T01:53:09.229Z,18.22
2022-08-17T01:55:45.767Z,19.05
2022-08-17T01:58:13.108Z,18.93
2022-08-17T02:00:59.370Z,18.67
2022-08-17T02:03:28.661Z,18.86
2022-08-17T02:05:55.661Z,18.86
2022-08-17T02:08:37.274Z,18.20
2022-08-17T02:11:14.645Z,18.77
2022-08-17T02:13:42.728Z,18.20
2022-08-17T02:16:09.390Z,17.98
2022-08-17T02:18:36.453Z,18.25
2022-08-17T02:21:04.293Z,18.35
2022-08-17T02:23:34.295Z,18.32
2022-08-17T02:26:01.402Z,18.23
2022-08-17T02:28:28.886Z,18.40
2022-08-17T02:31:00.937Z,18.47
2022-08-17T02:33:41.719Z,18.47
2022-08-17T02:36:09.424Z,18.16
2022-08-17T02:38:37.305Z,18.55
2022-08-17T02:41:04.646Z,18.55
2022-08-17T02:43:31.780Z,18.64
2022-08-17T02:45:58.457Z,18.72
2022-08-17T02:48:31.015Z,18.23
2022-08-17T02:50:59.655Z,18.65
2022-08-17T02:53:26.381Z,18.64
2022-08-17T02:55:53.718Z,18.68
2022-08-17T02:58:34.613Z,18.22
2022-08-17T03:01:06.425Z,18.68
2022-08-17T03:03:34.093Z,18.64
2022-08-17T03:06:01.231Z,18.67
2022-08-17T03:08:28.290Z,18.42
2022-08-17T03:10:55.190Z,18.60
2022-08-17T03:13:22.309Z,18.66
2022-08-17T03:15:49.422Z,18.25
2022-08-17T03:18:24.881Z,18.61
2022-08-17T03:20:58.204Z,18.66
2022-08-17T03:23:25.838Z,18.65
2022-08-17T03:25:54.494Z,18.71
2022-08-17T03:28:22.821Z,18.32
2022-08-17T03:30:51.379Z,18.81
2022-08-17T03:33:18.919Z,18.79
2022-08-17T03:35:46.245Z,18.51
2022-08-17T03:38:15.044Z,18.35
2022-08-17T03:40:56.940Z,18.56
2022-08-17T03:43:29.344Z,18.70
2022-08-17T03:46:34.178Z,18.79
2022-08-17T03:49:25.095Z,18.69
2022-08-17T03:52:10.665Z,18.75
2022-08-17T03:54:55.793Z,18.22
2022-08-17T03:57:22.895Z,18.65
2022-08-17T03:59:49.926Z,18.55
2022-08-17T04:02:30.264Z,18.57
2022-08-17T04:04:57.987Z,17.68
2022-08-17T04:07:27.638Z,18.46
2022-08-17T04:09:54.569Z,18.82
2022-08-17T04:12:23.215Z,18.78
2022-08-17T04:14:52.255Z,18.76
2022-08-17T04:17:26.140Z,18.83
2022-08-17T04:19:53.913Z,18.84
2022-08-17T04:22:30.508Z,18.97
2022-08-17T04:25:02.809Z,19.06
2022-08-17T04:27:29.440Z,19.03
2022-08-17T04:29:56.325Z,19.15
2022-08-17T04:33:00.407Z,18.91
2022-08-17T04:35:10.075Z,19.54
2022-08-17T04:37:36.805Z,19.62
2022-08-17T04:40:30.489Z,19.23
2022-08-17T04:43:02.213Z,19.92
2022-08-17T04:45:32.228Z,19.86
2022-08-17T04:48:00.022Z,20.39
2022-08-17T04:50:27.560Z,20.41
2022-08-17T04:52:54.421Z,20.54
2022-08-17T04:55:21.392Z,20.63
2022-08-17T04:57:48.028Z,20.77
2022-08-17T05:00:14.981Z,20.95
2022-08-17T05:02:50.999Z,20.96
2022-08-17T05:05:20.857Z,20.96
2022-08-17T05:07:47.938Z,20.99
2022-08-17T05:10:14.600Z,21.18
2022-08-17T05:12:41.212Z,21.34
2022-08-17T05:15:11.906Z,21.55
2022-08-17T05:17:38.561Z,21.70
2022-08-17T05:20:05.635Z,21.78
2022-08-17T05:22:32.268Z,22.06
2022-08-17T05:24:58.899Z,22.17
2022-08-17T05:27:30.807Z,22.32
2022-08-17T05:30:02.202Z,22.45
2022-08-17T05:32:39.626Z,23.03
2022-08-17T05:35:07.465Z,22.99
2022-08-17T05:37:34.135Z,23.51
2022-08-17T05:40:00.830Z,23.75
2022-08-17T05:42:27.537Z,23.75
2022-08-17T05:44:58.017Z,24.08
2022-08-17T05:47:26.338Z,24.26
2022-08-17T05:49:53.884Z,24.33
2022-08-17T05:52:20.525Z,24.60
2022-08-17T05:55:08.576Z,24.79
2022-08-17T05:57:52.861Z,24.99
2022-08-17T06:00:30.253Z,25.13
2022-08-17T06:03:25.274Z,25.42
2022-08-17T06:06:01.499Z,25.60
2022-08-17T06:08:43.535Z,25.89
2022-08-17T06:11:27.276Z,26.09
2022-08-17T06:14:04.108Z,26.12
2022-08-17T06:16:38.721Z,26.23
2022-08-17T06:19:17.259Z,26.49
2022-08-17T06:21:49.113Z,26.68
2022-08-17T06:24:28.383Z,26.85
2022-08-17T06:26:59.418Z,27.05
2022-08-17T06:29:46.279Z,27.13
2022-08-17T06:32:13.559Z,26.90
2022-08-17T06:34:43.715Z,27.42
2022-08-17T06:37:30.355Z,27.67
2022-08-17T06:40:45.596Z,27.86
2022-08-17T06:43:21.176Z,28.11
2022-08-17T06:46:02.330Z,28.34
2022-08-17T06:49:07.511Z,28.47
2022-08-17T06:51:49.185Z,28.62
2022-08-17T06:54:23.506Z,28.52
2022-08-17T06:57:06.449Z,28.52
2022-08-17T06:59:56.160Z,28.73
2022-08-17T07:03:13.009Z,29.09
2022-08-17T07:05:43.989Z,29.19
2022-08-17T07:08:13.274Z,29.32
2022-08-17T07:10:47.720Z,29.44
2022-08-17T07:13:29.396Z,29.62
2022-08-17T07:16:06.828Z,29.72
2022-08-17T07:18:34.251Z,29.67
2022-08-17T07:21:26.907Z,29.80
2022-08-17T07:24:29.213Z,29.91
2022-08-17T07:27:11.252Z,30.04
2022-08-17T07:29:40.941Z,30.23
2022-08-17T07:32:09.982Z,30.07
2022-08-17T07:35:11.143Z,30.34
2022-08-17T07:37:40.934Z,30.37
2022-08-17T07:40:34.091Z,30.12
2022-08-17T07:43:39.268Z,30.35
2022-08-17T07:46:40.852Z,30.10
2022-08-17T07:49:10.221Z,30.24
2022-08-17T07:51:57.231Z,30.13
2022-08-17T07:54:35.694Z,30.27
2022-08-17T07:57:03.425Z,30.45
2022-08-17T07:59:34.398Z,30.58
2022-08-17T08:02:31.792Z,30.45
2022-08-17T08:05:12.942Z,30.68
2022-08-17T08:07:42.644Z,30.74
2022-08-17T08:10:12.367Z,30.36
2022-08-17T08:12:42.457Z,30.82
2022-08-17T08:15:17.768Z,31.06
2022-08-17T08:18:03.076Z,31.18
2022-08-17T08:20:52.349Z,31.30
2022-08-17T08:23:39.300Z,31.29
2022-08-17T08:26:27.650Z,31.57
2022-08-17T08:29:31.127Z,31.65
2022-08-17T08:32:34.942Z,31.73
2022-08-17T08:35:13.674Z,31.82
2022-08-17T08:37:53.273Z,32.02
2022-08-17T08:40:29.888Z,32.22
2022-08-17T08:43:27.509Z,32.18
2022-08-17T08:46:09.378Z,32.29
2022-08-17T08:49:02.659Z,31.71
2022-08-17T08:51:43.022Z,30.92
2022-08-17T08:54:09.781Z,31.24
2022-08-17T08:57:19.175Z,31.63
2022-08-17T08:59:41.790Z,32.09
2022-08-17T09:02:34.615Z,31.87
2022-08-17T09:05:14.269Z,32.13
2022-08-17T09:08:07.305Z,32.37
2022-08-17T09:10:45.831Z,32.03
2022-08-17T09:13:15.413Z,31.70
2022-08-17T09:15:47.997Z,31.65
2022-08-17T09:19:02.159Z,31.74
2022-08-17T09:21:15.350Z,31.50
2022-08-17T09:24:12.782Z,31.60
2022-08-17T09:27:02.457Z,31.51
2022-08-17T09:29:35.206Z,32.14
2022-08-17T09:32:17.546Z,31.88
2022-08-17T09:34:52.649Z,32.12
2022-08-17T09:37:23.208Z,32.54
2022-08-17T09:40:09.703Z,32.61
2022-08-17T09:42:50.740Z,32.80
2022-08-17T09:45:24.583Z,32.33
2022-08-17T09:48:18.382Z,32.10
2022-08-17T09:51:05.853Z,32.98
2022-08-17T09:53:36.030Z,32.72
2022-08-17T09:56:05.605Z,32.52
2022-08-17T09:58:51.272Z,32.80
2022-08-17T10:01:37.433Z,32.77
2022-08-17T10:04:29.453Z,33.83
2022-08-17T10:07:17.870Z,32.20
2022-08-17T10:10:14.408Z,34.90
2022-08-17T10:13:20.137Z,35.69
2022-08-17T10:15:56.837Z,34.69
2022-08-17T10:18:41.144Z,35.00
2022-08-17T10:21:36.348Z,34.97
2022-08-17T10:24:21.364Z,35.50
2022-08-17T10:26:56.460Z,34.70
2022-08-17T10:29:48.876Z,33.36
2022-08-17T10:32:40.862Z,32.82
2022-08-17T10:35:31.157Z,33.29
2022-08-17T10:38:31.904Z,33.33
2022-08-17T10:41:27.253Z,33.20
2022-08-17T10:44:41.267Z,33.35
2022-08-17T10:47:11.357Z,33.54
2022-08-17T10:50:03.578Z,33.70
2022-08-17T10:52:30.600Z,33.70
2022-08-17T10:55:06.042Z,34.06
2022-08-17T10:57:37.556Z,34.32
2022-08-17T11:00:19.045Z,33.78
2022-08-17T11:02:54.570Z,33.25
2022-08-17T11:05:43.770Z,33.80
2022-08-17T11:08:57.539Z,33.65
2022-08-17T11:11:49.969Z,34.29
2022-08-17T11:14:17.329Z,34.89
2022-08-17T11:17:04.768Z,34.81
2022-08-17T11:19:40.633Z,34.95
2022-08-17T11:22:44.136Z,34.80
2022-08-17T11:25:17.965Z,34.67
2022-08-17T11:27:53.901Z,33.28
2022-08-17T11:30:47.097Z,34.20
2022-08-17T11:33:30.518Z,33.98
2022-08-17T11:36:33.332Z,33.82
2022-08-17T11:39:18.377Z,33.89
2022-08-17T11:41:58.187Z,33.85
2022-08-17T11:44:43.512Z,33.85
2022-08-17T11:47:42.456Z,34.05
2022-08-17T11:50:36.733Z,34.20
2022-08-17T11:53:04.132Z,33.85
2022-08-17T11:55:37.496Z,33.95
2022-08-17T11:58:37.453Z,33.86
2022-08-17T12:01:29.320Z,33.71
2022-08-17T12:04:25.944Z,33.90
2022-08-17T12:06:59.799Z,33.74
2022-08-17T12:09:32.251Z,33.33
2022-08-17T12:12:13.288Z,33.19
2022-08-17T12:17:40.939Z,32.98
2022-08-17T12:20:19.547Z,32.85
2022-08-17T12:23:01.161Z,32.41
2022-08-17T12:25:39.099Z,32.56
2022-08-17T12:28:37.912Z,32.54
2022-08-17T12:31:15.638Z,32.13
2022-08-17T12:33:47.515Z,32.59
2022-08-17T12:36:16.975Z,32.65
2022-08-17T12:39:14.330Z,32.99
2022-08-17T12:41:50.911Z,33.46
2022-08-17T12:44:19.258Z,33.59
2022-08-17T12:46:45.933Z,34.05
2022-08-17T12:49:35.529Z,34.53
2022-08-17T12:52:11.327Z,34.84
2022-08-17T12:54:46.869Z,34.71
2022-08-17T12:57:19.185Z,34.06
2022-08-17T12:59:50.378Z,34.61
2022-08-17T13:02:24.728Z,34.73
2022-08-17T13:04:51.495Z,34.72
2022-08-17T13:07:42.508Z,34.79
2022-08-17T13:10:18.411Z,35.01
2022-08-17T13:12:45.385Z,34.49
2022-08-17T13:15:23.979Z,34.93
2022-08-17T13:18:00.173Z,36.30
2022-08-17T13:20:26.888Z,36.83
2022-08-17T13:22:59.484Z,37.39
2022-08-17T13:25:27.793Z,38.47
2022-08-17T13:27:55.877Z,39.22
2022-08-17T13:30:29.288Z,39.99
2022-08-17T13:32:57.316Z,39.77
2022-08-17T13:35:44.147Z,39.62
2022-08-17T13:38:35.911Z,40.06
2022-08-17T13:41:04.136Z,40.23
2022-08-17T13:43:41.023Z,40.09
2022-08-17T13:46:20.404Z,41.06
2022-08-17T13:48:57.948Z,41.45
2022-08-17T13:51:28.492Z,41.11
2022-08-17T13:53:59.287Z,40.73
2022-08-17T13:56:38.608Z,41.47
2022-08-17T13:59:12.741Z,40.89
2022-08-17T14:01:52.556Z,40.68
2022-08-17T14:04:28.024Z,39.43
2022-08-17T14:07:13.032Z,38.26
2022-08-17T14:09:57.716Z,37.56
2022-08-17T14:12:26.844Z,37.22
2022-08-17T14:14:55.222Z,36.47
2022-08-17T14:17:23.237Z,35.96
2022-08-17T14:19:51.069Z,35.71
2022-08-17T14:22:23.772Z,35.26
2022-08-17T14:24:51.379Z,35.05
2022-08-17T14:27:19.467Z,34.90
2022-08-17T14:29:46.794Z,34.61
2022-08-17T14:32:37.067Z,34.97
2022-08-17T14:35:05.788Z,34.98
2022-08-17T14:37:34.467Z,34.75
2022-08-17T14:40:05.181Z,34.29
2022-08-17T14:42:33.849Z,33.77
2022-08-17T14:45:06.233Z,33.41
2022-08-17T14:47:52.888Z,33.15
2022-08-17T14:50:22.717Z,33.86
2022-08-17T14:52:50.555Z,34.68
2022-08-17T14:55:18.379Z,35.68
2022-08-17T14:57:45.655Z,35.65
2022-08-17T15:00:12.969Z,36.19
2022-08-17T15:02:54.953Z,36.48
2022-08-17T15:05:24.577Z,37.50
2022-08-17T15:07:53.398Z,37.47
2022-08-17T15:10:20.907Z,36.70
2022-08-17T15:12:48.181Z,38.23
2022-08-17T15:15:17.347Z,38.64
2022-08-17T15:17:54.624Z,38.59
2022-08-17T15:20:27.608Z,37.65
2022-08-17T15:22:57.269Z,35.92
2022-08-17T15:25:25.870Z,34.88
2022-08-17T15:27:52.933Z,34.43
2022-08-17T15:30:20.435Z,33.89
2022-08-17T15:32:51.339Z,33.72
2022-08-17T15:35:27.141Z,33.64
2022-08-17T15:37:54.442Z,33.33
2022-08-17T15:40:21.087Z,33.24
2022-08-17T15:42:47.750Z,33.03
2022-08-17T15:45:16.679Z,32.62
2022-08-17T15:47:43.361Z,32.54
2022-08-17T15:50:10.760Z,32.34
2022-08-17T15:52:40.355Z,32.33
2022-08-17T15:55:11.484Z,32.45
2022-08-17T15:57:38.803Z,32.09
2022-08-17T16:00:08.601Z,32.02
2022-08-17T16:03:44.481Z,32.18
2022-08-17T16:05:25.341Z,32.31
2022-08-17T16:07:53.261Z,32.20
2022-08-17T16:10:21.141Z,32.12
2022-08-17T16:12:49.688Z,31.97
2022-08-17T16:15:17.292Z,32.19
2022-08-17T16:17:43.996Z,32.14
2022-08-17T16:20:20.392Z,32.17
2022-08-17T16:22:49.815Z,32.18
2022-08-17T16:25:23.191Z,32.11
2022-08-17T16:28:09.829Z,32.14
2022-08-17T16:30:37.504Z,32.18
2022-08-17T16:33:05.050Z,32.53
2022-08-17T16:35:31.896Z,33.01
2022-08-17T16:37:58.839Z,33.64
2022-08-17T16:40:28.665Z,33.93
2022-08-17T16:42:56.198Z,33.99
2022-08-17T16:45:36.643Z,34.23
2022-08-17T16:48:04.361Z,33.90
2022-08-17T16:50:31.944Z,32.88
2022-08-17T16:53:17.383Z,32.89
2022-08-17T16:55:45.143Z,32.62
2022-08-17T16:58:12.024Z,32.21
2022-08-17T17:00:39.528Z,31.87
2022-08-17T17:03:19.432Z,31.63
2022-08-17T17:05:58.765Z,31.40
2022-08-17T17:08:34.816Z,31.12
2022-08-17T17:11:14.841Z,30.66
2022-08-17T17:13:54.175Z,30.44
2022-08-17T17:16:31.327Z,30.25
2022-08-17T17:19:34.340Z,29.97
2022-08-17T17:22:08.375Z,29.70
2022-08-17T17:24:40.946Z,29.60
2022-08-17T17:27:34.814Z,29.28
2022-08-17T17:30:09.907Z,29.23
2022-08-17T17:32:44.288Z,28.61
2022-08-17T17:35:24.248Z,28.86
2022-08-17T17:37:53.204Z,28.68
2022-08-17T17:40:37.012Z,28.50
2022-08-17T17:43:34.643Z,26.22
2022-08-17T17:46:28.033Z,28.00
2022-08-17T17:48:55.109Z,27.93
2022-08-17T17:52:06.860Z,27.83
2022-08-17T17:54:46.865Z,27.66
2022-08-17T17:57:34.817Z,27.59
2022-08-17T18:00:06.552Z,27.46
2022-08-17T18:02:51.728Z,27.34
2022-08-17T18:05:37.377Z,27.11
2022-08-17T18:08:32.388Z,26.98
2022-08-17T18:11:24.612Z,26.46
2022-08-17T18:13:57.399Z,26.64
2022-08-17T18:16:27.430Z,26.41
2022-08-17T18:18:57.630Z,26.14
2022-08-17T18:21:35.028Z,25.92
2022-08-17T18:24:04.261Z,25.70
2022-08-17T18:26:50.082Z,25.62
2022-08-17T18:29:37.577Z,25.34
2022-08-17T18:32:23.838Z,25.37
2022-08-17T18:34:57.283Z,24.86
2022-08-17T18:37:47.215Z,25.22
2022-08-17T18:40:17.163Z,25.01
2022-08-17T18:43:00.892Z,25.04
2022-08-17T18:45:49.129Z,24.79
2022-08-17T18:48:49.784Z,24.83
2022-08-17T18:51:46.156Z,24.63
2022-08-17T18:54:20.127Z,24.54
2022-08-17T18:56:53.683Z,24.63
2022-08-17T18:59:28.280Z,24.61
2022-08-17T19:02:45.193Z,24.58
2022-08-17T19:05:31.058Z,24.55
2022-08-17T19:08:27.404Z,24.13
2022-08-17T19:10:59.886Z,24.56
2022-08-17T19:13:40.759Z,24.31
2022-08-17T19:16:15.387Z,23.96
2022-08-17T19:18:53.744Z,24.07
2022-08-17T19:21:43.011Z,24.02
2022-08-17T19:24:14.262Z,23.89
2022-08-17T19:26:53.608Z,23.92
2022-08-17T19:29:29.999Z,23.44
2022-08-17T19:31:58.771Z,23.68
2022-08-17T19:34:33.495Z,23.58
2022-08-17T19:37:26.518Z,23.66
2022-08-17T19:39:53.106Z,23.63
2022-08-17T19:42:26.157Z,23.61
2022-08-17T19:45:03.000Z,23.63
2022-08-17T19:47:53.336Z,23.54
2022-08-17T19:50:30.213Z,23.40
2022-08-17T19:53:07.790Z,23.07
2022-08-17T19:56:17.475Z,22.93
2022-08-17T19:58:49.917Z,23.08
2022-08-17T20:01:34.966Z,22.95
2022-08-17T20:04:19.619Z,23.25
2022-08-17T20:06:49.583Z,23.03
2022-08-17T20:09:33.402Z,22.97
2022-08-17T20:12:16.488Z,22.87
2022-08-17T20:15:29.606Z,22.70
2022-08-17T20:18:00.300Z,22.85
2022-08-17T20:20:48.545Z,23.10
2022-08-17T20:23:40.476Z,23.16
2022-08-17T20:26:20.677Z,23.16
2022-08-17T20:29:07.611Z,23.20
2022-08-17T20:31:49.772Z,23.20
2022-08-17T20:34:30.865Z,21.13
2022-08-17T20:37:10.991Z,23.35
2022-08-17T20:39:42.487Z,23.00
2022-08-17T20:42:15.069Z,23.49
2022-08-17T20:44:43.232Z,23.04
2022-08-17T20:47:17.366Z,23.44
2022-08-17T20:49:47.176Z,23.45
2022-08-17T20:52:35.368Z,23.40
2022-08-17T20:55:04.422Z,23.39
2022-08-17T20:57:31.361Z,23.32
2022-08-17T21:00:14.975Z,23.37
2022-08-17T21:02:47.388Z,23.37
2022-08-17T21:05:59.802Z,23.23
2022-08-17T21:08:30.083Z,22.88
2022-08-17T21:10:58.443Z,23.15
2022-08-17T21:13:40.383Z,23.10
2022-08-17T21:16:09.900Z,23.22
2022-08-17T21:18:59.228Z,23.26
2022-08-17T21:21:26.020Z,23.13
2022-08-17T21:24:22.512Z,23.14
2022-08-17T21:27:14.040Z,23.10
2022-08-17T21:30:06.557Z,23.05
2022-08-17T21:32:40.435Z,23.10
2022-08-17T21:35:11.444Z,23.10
2022-08-17T21:41:54.641Z,23.12
2022-08-17T21:44:48.583Z,22.98
2022-08-17T21:47:28.583Z,23.04
2022-08-17T21:50:12.839Z,22.94
2022-08-17T21:52:40.596Z,23.27
2022-08-17T21:55:08.133Z,23.24
2022-08-17T21:57:41.866Z,23.34
2022-08-17T22:00:32.191Z,22.90
2022-08-17T22:03:01.912Z,23.22
2022-08-17T22:05:40.009Z,23.23
2022-08-17T22:08:19.143Z,23.29
2022-08-17T22:10:50.476Z,23.36
2022-08-17T22:13:17.709Z,23.26
2022-08-17T22:15:47.205Z,23.28
2022-08-17T22:18:21.674Z,23.14
2022-08-17T22:21:01.725Z,23.24
2022-08-17T22:23:53.880Z,22.92
2022-08-17T22:26:24.220Z,22.85
2022-08-17T22:28:54.374Z,22.95
2022-08-17T22:31:29.096Z,22.96
2022-08-17T22:34:01.485Z,23.00
2022-08-17T22:36:30.943Z,23.12
2022-08-17T22:39:07.504Z,22.93
2022-08-17T22:41:54.381Z,22.92
2022-08-17T22:44:27.796Z,23.05
2022-08-17T22:46:56.568Z,22.88
2022-08-17T22:49:38.605Z,22.83
2022-08-17T22:52:29.200Z,22.86
2022-08-17T22:55:35.014Z,22.92
2022-08-17T22:58:28.164Z,22.92
2022-08-17T23:00:55.811Z,22.93
2022-08-17T23:03:27.234Z,22.97
2022-08-17T23:06:06.853Z,22.94
2022-08-17T23:08:36.464Z,23.14
2022-08-17T23:11:05.391Z,22.92
2022-08-17T23:13:33.528Z,23.15
2022-08-17T23:16:00.328Z,22.74
2022-08-17T23:18:27.395Z,23.26
2022-08-17T23:20:54.299Z,23.17
2022-08-17T23:23:23.882Z,23.10
2022-08-17T23:25:50.995Z,23.06
2022-08-17T23:28:17.656Z,23.14
2022-08-17T23:30:45.106Z,23.17
2022-08-17T23:33:30.046Z,23.12
2022-08-17T23:36:00.225Z,23.15
2022-08-17T23:38:27.877Z,23.06
2022-08-17T23:41:00.065Z,22.98
2022-08-17T23:43:28.810Z,22.90
2022-08-17T23:45:57.529Z,22.37
2022-08-17T23:48:34.913Z,22.48
2022-08-17T23:51:17.353Z,22.46
2022-08-17T23:53:50.124Z,22.32
2022-08-17T23:56:23.295Z,21.83
2022-08-17T23:58:51.412Z,22.19
